Time;durP1;ratioP1;P1;durP2;ratioP2;P2;SDS_P1;SDS_P2;PMS_P1;PMS_P2;Temp;Humidity;BMP_temperature;BMP_pressure;BME280_temperature;BME280_humidity;BME280_pressure;Samples;Min_cycle;Max_cycle;Signal;HPM_P1;HPM_P2
2023/02/06 00:00:35;;;;;;;39.65;20.85;;;;;;;0.27;83.64;100855.86;1626671;88;21239;-86
2023/02/06 00:03:42;;;;;;;40.20;21.82;;;;;;;-0.16;84.89;100856.34;1625563;88;21790;-84
2023/02/06 00:06:48;;;;;;;42.15;20.62;;;;;;;-0.20;84.95;100860.17;1618608;88;22499;-83
2023/02/06 00:09:58;;;;;;;41.75;20.23;;;;;;;-0.13;84.83;100852.99;1606029;89;21273;-84
2023/02/06 00:13:05;;;;;;;41.33;21.02;;;;;;;0.07;84.32;100857.13;1606501;89;21378;-84
2023/02/06 00:16:11;;;;;;;36.50;20.20;;;;;;;0.20;83.82;100862.61;1607250;89;21938;-84
2023/02/06 00:19:18;;;;;;;39.73;21.17;;;;;;;-0.20;84.24;100865.55;1606009;89;21252;-85
2023/02/06 00:22:23;;;;;;;39.27;20.27;;;;;;;0.15;84.84;100864.73;1606197;89;21232;-83
2023/02/06 00:25:31;;;;;;;36.55;19.48;;;;;;;0.03;83.47;100865.48;1607387;89;21236;-84
2023/02/06 00:28:37;;;;;;;40.30;20.43;;;;;;;0.35;82.90;100878.27;1606604;89;21264;-84
2023/02/06 00:31:45;;;;;;;37.63;19.65;;;;;;;0.59;81.17;100866.41;1606863;89;21249;-84
2023/02/06 00:34:52;;;;;;;37.90;18.90;;;;;;;0.10;82.48;100862.33;1606296;89;21219;-84
2023/02/06 00:37:58;;;;;;;39.70;20.52;;;;;;;0.06;82.51;100856.75;1607104;89;21220;-83
2023/02/06 00:41:04;;;;;;;40.38;21.27;;;;;;;0.28;81.74;100867.48;1607297;89;21217;-83
2023/02/06 00:44:09;;;;;;;33.33;18.95;;;;;;;0.15;81.90;100856.66;1606411;89;21796;-83
2023/02/06 00:47:15;;;;;;;42.93;20.55;;;;;;;0.19;81.84;100857.72;1607322;89;21764;-83
2023/02/06 00:50:17;;;;;;;40.58;20.50;;;;;;;0.11;82.25;100871.25;1607259;89;21855;-84
2023/02/06 00:53:25;;;;;;;40.25;19.92;;;;;;;-0.12;82.89;100879.41;1606007;89;21256;-82
2023/02/06 00:56:33;;;;;;;35.25;17.77;;;;;;;0.04;83.23;100864.52;1607157;89;21240;-84
2023/02/06 00:59:39;;;;;;;34.63;18.32;;;;;;;0.25;81.59;100873.95;1606901;89;21390;-83
2023/02/06 01:02:46;;;;;;;44.27;19.17;;;;;;;0.12;81.91;100880.56;1605993;89;21828;-84
2023/02/06 01:05:53;;;;;;;35.70;18.77;;;;;;;0.21;80.92;100871.92;1610445;86;21232;-84
2023/02/06 01:08:58;;;;;;;35.23;19.52;;;;;;;0.11;81.34;100881.53;1662406;86;22472;-84
2023/02/06 01:12:03;;;;;;;39.38;19.07;;;;;;;0.14;80.95;100869.25;1668547;86;21269;-84
2023/02/06 01:15:03;;;;;;;36.17;19.70;;;;;;;0.28;80.12;100872.87;1667532;86;21360;-84
2023/02/06 01:18:11;;;;;;;46.50;21.60;;;;;;;0.09;80.54;100866.44;1668171;86;21348;-83
2023/02/06 01:21:19;;;;;;;32.73;18.07;;;;;;;0.22;80.63;100866.05;1674116;84;21185;-83
2023/02/06 01:24:25;;;;;;;41.33;20.35;;;;;;;-0.04;80.59;100869.05;1660177;86;21217;-84
2023/02/06 01:27:34;;;;;;;36.58;20.27;;;;;;;-0.32;81.49;100859.98;1652684;87;21248;-83
2023/02/06 01:30:40;;;;;;;29.63;17.62;;;;;;;-0.46;82.19;100876.08;1652613;87;21820;-85
2023/02/06 01:33:47;;;;;;;33.05;18.07;;;;;;;-0.26;81.97;100868.14;1651621;87;21806;-84
2023/02/06 01:36:54;;;;;;;35.43;18.95;;;;;;;-0.29;81.86;100882.62;1624691;87;21217;-84
2023/02/06 01:40:00;;;;;;;35.40;18.23;;;;;;;-0.19;81.26;100874.86;1600672;89;21304;-83
2023/02/06 01:43:08;;;;;;;33.30;18.20;;;;;;;-0.28;81.11;100870.08;1600557;89;21843;-83
2023/02/06 01:46:15;;;;;;;34.53;19.05;;;;;;;-0.37;81.73;100869.29;1573451;91;21245;-85
2023/02/06 01:49:30;;;;;;;31.52;18.75;;;;;;;-0.28;81.49;100889.75;1600065;89;21330;-85
2023/02/06 01:52:32;;;;;;;32.33;18.30;;;;;;;-0.26;81.20;100872.18;1593995;89;21232;-84
2023/02/06 01:55:39;;;;;;;31.95;17.00;;;;;;;-0.14;81.69;100874.58;1573084;90;21241;-83
2023/02/06 01:58:50;;;;;;;34.60;18.62;;;;;;;-0.07;80.44;100883.53;1599660;89;21312;-84
2023/02/06 02:01:56;;;;;;;;;;;;;;;-0.23;80.92;100880.55;1602706;89;21253;-84
2023/02/06 02:05:01;;;;;;;35.30;18.98;;;;;;;0.06;80.54;100886.34;1600160;89;20308;-84
2023/02/06 02:08:12;;;;;;;30.97;18.65;;;;;;;-0.07;79.90;100882.19;1600028;89;21245;-84
2023/02/06 02:11:21;;;;;;;43.68;20.45;;;;;;;-0.09;80.61;100888.64;1626059;88;21242;-84
2023/02/06 02:14:26;;;;;;;35.95;20.52;;;;;;;-0.18;80.65;100890.55;1625272;88;21255;-85
2023/02/06 02:17:58;;;;;;;32.25;18.20;;;;;;;-0.14;80.30;100884.89;1608933;88;21239;-84
2023/02/06 02:21:42;;;;;;;35.55;18.87;;;;;;;-0.03;79.72;100891.80;1626575;88;21247;-83
2023/02/06 02:25:06;;;;;;;33.95;18.85;;;;;;;0.12;79.81;100895.36;1625385;88;21219;-83
2023/02/06 02:28:46;;;;;;;34.83;19.55;;;;;;;-0.24;80.62;100890.89;1622814;88;21290;-83
2023/02/06 02:32:45;;;;;;;38.53;19.67;;;;;;;0.02;80.04;100890.66;1626650;88;21291;-85
2023/02/06 02:36:01;;;;;;;34.55;20.60;;;;;;;-0.05;80.18;100900.45;1625521;88;21344;-84
2023/02/06 02:39:33;;;;;;;35.33;19.23;;;;;;;-0.03;79.33;100897.66;1626457;88;21231;-83
2023/02/06 02:42:47;;;;;;;32.48;18.35;;;;;;;-0.13;79.77;100896.02;1626634;88;21849;-83
2023/02/06 02:46:17;;;;;;;34.80;18.42;;;;;;;-0.07;78.84;100892.08;1626164;88;21258;-83
2023/02/06 02:49:31;;;;;;;29.32;17.27;;;;;;;-0.42;80.08;100897.78;1625991;88;21254;-83
2023/02/06 02:52:36;;;;;;;29.92;18.27;;;;;;;0.17;78.24;100896.42;1612884;88;21267;-83
2023/02/06 02:55:42;;;;;;;29.32;17.27;;;;;;;0.20;77.37;100902.48;1625678;87;21773;-83
2023/02/06 02:58:49;;;;;;;33.48;19.30;;;;;;;-0.68;78.95;100914.09;1627048;88;21787;-84
2023/02/06 03:02:21;;;;;;;32.70;18.85;;;;;;;-0.58;79.74;100913.94;1625972;88;21266;-84
2023/02/06 03:05:30;;;;;;;35.73;19.30;;;;;;;-0.59;80.13;100920.27;1627127;88;21207;-82
2023/02/06 03:08:43;;;;;;;27.10;14.33;;;;;;;-0.67;80.69;100925.70;1627210;88;21350;-84
2023/02/06 03:11:54;;;;;;;34.20;19.23;;;;;;;-0.91;81.15;100914.09;1621761;87;21226;-83
2023/02/06 03:15:15;;;;;;;35.78;18.77;;;;;;;-0.43;80.53;100913.98;1657980;86;21221;-84
2023/02/06 03:18:30;;;;;;;31.93;17.92;;;;;;;-0.19;79.38;100914.33;1657342;86;21245;-83
2023/02/06 03:21:37;;;;;;;34.95;19.42;;;;;;;-0.57;80.31;100922.86;1657422;86;21887;-85
2023/02/06 03:24:45;;;;;;;33.30;18.87;;;;;;;-0.45;80.17;100917.25;1657898;86;21229;-84
2023/02/06 03:27:52;;;;;;;35.05;18.27;;;;;;;-0.28;79.13;100913.95;1658185;86;21367;-83
2023/02/06 03:31:00;;;;;;;30.52;17.80;;;;;;;-0.44;80.01;100918.50;1657897;86;21835;-85
2023/02/06 03:34:16;;;;;;;31.42;17.48;;;;;;;-0.04;79.31;100924.18;1657251;86;21269;-85
2023/02/06 03:37:24;;;;;;;36.53;18.85;;;;;;;0.08;78.66;100921.20;1658088;86;21372;-84
2023/02/06 03:40:31;;;;;;;34.95;19.02;;;;;;;-0.59;79.82;100927.48;1656960;86;21205;-85
2023/02/06 03:43:37;;;;;;;35.13;18.42;;;;;;;-0.32;79.56;100926.33;1657998;86;21245;-85
2023/02/06 03:46:43;;;;;;;37.53;20.30;;;;;;;-0.52;79.86;100929.72;1657837;86;21257;-84
2023/02/06 03:49:50;;;;;;;41.20;20.95;;;;;;;-0.57;80.05;100937.64;1657191;86;21541;-86
2023/02/06 03:52:56;;;;;;;37.45;19.40;;;;;;;-0.71;81.00;100932.20;1657911;86;21209;-86
2023/02/06 03:56:07;;;;;;;36.77;20.60;;;;;;;-0.65;80.61;100923.33;1658041;86;21768;-85
2023/02/06 03:59:13;;;;;;;32.67;19.30;;;;;;;-0.84;81.53;100927.56;1658116;86;21946;-83
2023/02/06 04:02:19;;;;;;;34.15;19.07;;;;;;;-0.63;80.35;100928.13;1657444;86;21430;-83
2023/02/06 04:05:25;;;;;;;34.40;19.52;;;;;;;-0.75;80.81;100927.52;1657000;86;21299;-85
2023/02/06 04:08:35;;;;;;;34.55;19.20;;;;;;;-0.87;80.45;100937.13;1658105;86;21209;-83
2023/02/06 04:11:41;;;;;;;31.77;18.98;;;;;;;-0.70;79.75;100935.31;1656755;85;21253;-84
2023/02/06 04:14:49;;;;;;;36.53;19.48;;;;;;;-0.73;80.06;100942.20;1656383;86;21578;-84
2023/02/06 04:17:58;;;;;;;34.05;18.60;;;;;;;-0.92;79.75;100936.53;1657796;86;21359;-84
2023/02/06 04:21:11;;;;;;;32.70;18.17;;;;;;;-1.02;79.69;100942.05;1658438;86;21225;-85
2023/02/06 04:24:19;;;;;;;35.80;18.42;;;;;;;-1.04;79.98;100942.11;1658762;86;21249;-83
2023/02/06 04:27:29;;;;;;;36.75;17.80;;;;;;;-1.00;79.86;100948.18;1658725;86;21323;-83
2023/02/06 04:30:35;;;;;;;31.80;18.40;;;;;;;-1.04;79.50;100945.27;1658693;86;21229;-83
2023/02/06 04:33:39;;;;;;;34.18;18.70;;;;;;;-1.27;79.96;100949.73;1642126;86;21244;-84
2023/02/06 04:36:46;;;;;;;31.50;17.87;;;;;;;-1.15;79.48;100955.77;1658577;86;21741;-83
2023/02/06 04:39:51;;;;;;;29.70;17.50;;;;;;;-1.01;79.09;100957.20;1658558;84;21118;-85
2023/02/06 04:42:59;;;;;;;30.65;17.48;;;;;;;-1.54;79.71;100953.00;1656536;86;21221;-83
2023/02/06 04:45:52;;;;;;;34.65;19.50;;;;;;;-1.37;80.30;100961.45;1655791;86;21233;-83
2023/02/06 04:49:01;;;;;;;38.05;20.27;;;;;;;-1.66;80.78;100961.70;1655385;86;21233;-85
2023/02/06 04:52:07;;;;;;;35.30;17.63;;;;;;;-1.67;81.63;100955.95;1656344;86;21222;-82
2023/02/06 04:55:17;;;;;;;35.75;19.32;;;;;;;-1.16;79.87;100950.02;1657478;86;22077;-84
2023/02/06 04:58:27;;;;;;;35.58;18.98;;;;;;;-0.86;78.93;100960.83;1657883;86;21770;-85
2023/02/06 05:01:34;;;;;;;34.45;21.25;;;;;;;-1.26;79.43;100953.69;1657706;86;21214;-83
2023/02/06 05:04:40;;;;;;;33.18;19.57;;;;;;;-1.24;80.19;100961.64;1657841;86;21340;-83
2023/02/06 05:07:46;;;;;;;37.38;20.05;;;;;;;-1.47;80.82;100964.25;1658189;86;21241;-82
2023/02/06 05:10:39;;;;;;;37.88;20.35;;;;;;;-1.16;80.26;100964.78;1657757;86;21245;-83
2023/02/06 05:13:26;;;;;;;39.42;20.23;;;;;;;-1.31;80.36;100975.41;1655653;86;21246;-83
2023/02/06 05:16:21;;;;;;;35.15;19.65;;;;;;;-1.20;80.67;100969.92;1657212;86;21254;-84
2023/02/06 05:19:28;;;;;;;33.88;19.42;;;;;;;-1.06;80.22;100978.08;1656761;86;21799;-83
2023/02/06 05:22:34;;;;;;;39.18;20.80;;;;;;;-0.91;79.30;100980.37;1658463;86;21844;-82
2023/02/06 05:25:42;;;;;;;37.63;20.70;;;;;;;-1.16;80.06;100979.55;1657823;86;21447;-84
2023/02/06 05:28:49;;;;;;;34.80;18.98;;;;;;;-0.93;79.65;100975.09;1657975;86;21251;-84
2023/02/06 05:31:57;;;;;;;39.90;20.00;;;;;;;-1.05;80.12;100974.43;1657897;86;21218;-84
2023/02/06 05:35:04;;;;;;;35.17;19.98;;;;;;;-0.91;80.59;100979.89;1657840;86;21214;-84
2023/02/06 05:38:11;;;;;;;38.63;20.10;;;;;;;-0.57;78.93;100984.67;1657379;86;21265;-84
2023/02/06 05:41:18;;;;;;;40.23;21.93;;;;;;;-0.82;79.54;100981.19;1657677;86;21234;-84
2023/02/06 05:44:25;;;;;;;38.38;21.25;;;;;;;-1.11;79.85;100972.09;1657839;86;21341;-84
2023/02/06 05:47:32;;;;;;;36.00;19.57;;;;;;;-0.57;78.53;100987.36;1656387;86;21380;-86
2023/02/06 05:50:38;;;;;;;34.05;19.23;;;;;;;-0.59;77.73;100987.94;1657832;86;21230;-85
2023/02/06 05:53:44;;;;;;;37.53;21.55;;;;;;;-0.68;78.24;100993.84;1669161;85;21772;-85
2023/02/06 05:56:51;;;;;;;36.73;21.07;;;;;;;-0.99;78.48;100994.22;1684521;85;21776;-85
2023/02/06 05:59:58;;;;;;;38.65;21.68;;;;;;;-0.91;78.50;101001.38;1685605;85;21254;-85
2023/02/06 06:03:04;;;;;;;47.08;22.90;;;;;;;-1.09;78.71;100997.89;1685166;85;21194;-84
2023/02/06 06:06:10;;;;;;;38.73;21.90;;;;;;;-0.87;77.78;101008.79;1685579;85;21210;-84
2023/02/06 06:09:09;;;;;;;43.78;23.10;;;;;;;-0.84;77.10;101012.17;1684702;83;21225;-83
2023/02/06 06:12:01;;;;;;;42.48;21.55;;;;;;;-0.73;77.39;101024.99;1685491;85;22838;-84
2023/02/06 06:15:07;;;;;;;47.90;22.93;;;;;;;-0.77;76.96;101018.06;1677125;85;21297;-84
2023/02/06 06:18:13;;;;;;;45.40;25.08;;;;;;;-0.54;76.31;101027.50;1677938;85;21243;-84
2023/02/06 06:21:19;;;;;;;44.75;23.60;;;;;;;-0.73;76.29;101036.22;1678555;85;21743;-85
2023/02/06 06:24:26;;;;;;;42.00;21.40;;;;;;;-0.62;75.46;101041.36;1660842;85;21199;-87
2023/02/06 06:27:31;;;;;;;44.85;24.07;;;;;;;-0.32;74.88;101030.69;1662536;85;21214;-86
2023/02/06 06:30:37;;;;;;;50.12;23.07;;;;;;;-0.77;75.99;101035.04;1640229;85;21239;-84
2023/02/06 06:33:43;;;;;;;52.03;24.37;;;;;;;-0.59;74.78;101041.68;1653361;85;21208;-83
2023/02/06 06:36:51;;;;;;;48.85;23.75;;;;;;;-0.95;74.41;101049.97;1654971;86;21199;-84
2023/02/06 06:39:56;;;;;;;43.63;22.98;;;;;;;-0.46;73.19;101032.45;1654270;86;21239;-83
2023/02/06 06:43:03;;;;;;;47.62;23.90;;;;;;;-0.66;73.60;101048.34;1671824;85;21212;-83
2023/02/06 06:46:14;;;;;;;35.15;18.67;;;;;;;-0.58;73.55;101053.67;1634816;86;21213;-84
2023/02/06 06:49:14;;;;;;;46.68;23.75;;;;;;;-0.74;73.90;101051.95;1638840;86;21346;-84
2023/02/06 06:52:19;;;;;;;49.70;24.43;;;;;;;-0.99;74.45;101052.43;1627670;88;21224;-86
2023/02/06 06:55:25;;;;;;;46.02;23.45;;;;;;;-1.04;74.78;101043.28;1649177;85;21791;-85
2023/02/06 06:58:31;;;;;;;48.48;23.90;;;;;;;-0.81;74.62;101051.41;1652823;86;21331;-84
2023/02/06 07:01:39;;;;;;;49.85;23.83;;;;;;;-0.81;73.93;101057.65;1641441;85;21301;-84
2023/02/06 07:04:46;;;;;;;48.50;23.87;;;;;;;-0.78;74.02;101058.83;1664896;85;21226;-85
2023/02/06 07:07:51;;;;;;;49.90;23.73;;;;;;;-0.56;72.61;101054.47;1618802;88;21214;-85
2023/02/06 07:10:57;;;;;;;43.98;22.82;;;;;;;-0.96;73.14;101059.85;1617635;88;21799;-83
2023/02/06 07:14:03;;;;;;;45.12;23.75;;;;;;;-1.04;73.38;101052.69;1606383;87;21179;-84
2023/02/06 07:17:09;;;;;;;47.50;22.82;;;;;;;-0.67;72.86;101058.70;1629096;87;21438;-85
2023/02/06 07:20:17;;;;;;;43.63;23.47;;;;;;;-1.08;74.30;101052.01;1643018;86;21319;-84
2023/02/06 07:23:21;;;;;;;44.30;24.00;;;;;;;-1.24;74.39;101055.59;1638982;85;21276;-86
2023/02/06 07:26:30;;;;;;;43.87;23.18;;;;;;;-1.14;74.06;101051.45;1617015;88;21267;-84
2023/02/06 07:29:36;;;;;;;45.85;21.75;;;;;;;-1.33;74.19;101047.08;1637557;87;21161;-84
2023/02/06 07:32:42;;;;;;;40.48;21.05;;;;;;;-1.15;73.97;101043.02;1592099;89;21300;-84
2023/02/06 07:35:50;;;;;;;48.05;23.87;;;;;;;-1.10;73.45;101036.92;1608270;88;21229;-84
2023/02/06 07:38:56;;;;;;;46.95;23.55;;;;;;;-0.73;73.08;101041.11;1627149;87;21300;-84
2023/02/06 07:42:03;;;;;;;44.25;23.80;;;;;;;-0.67;72.55;101033.17;1631894;86;21317;-84
2023/02/06 07:45:18;;;;;;;46.85;23.32;;;;;;;-0.75;72.24;101034.08;1619034;87;21354;-84
2023/02/06 07:48:23;;;;;;;43.20;22.87;;;;;;;-1.37;73.35;101044.17;1623802;86;21204;-85
2023/02/06 07:51:30;;;;;;;47.05;23.20;;;;;;;-1.44;74.05;101037.41;1624140;86;21262;-87
2023/02/06 07:54:35;;;;;;;41.05;20.08;;;;;;;-1.21;73.43;101033.97;1623528;86;21213;-86
2023/02/06 07:57:42;;;;;;;49.63;24.87;;;;;;;-0.99;71.25;101042.55;1630602;87;21304;-86
2023/02/06 08:00:41;;;;;;;42.38;21.48;;;;;;;-1.30;72.46;101049.61;1624953;86;21260;-87
2023/02/06 08:03:33;;;;;;;45.78;22.55;;;;;;;-0.66;70.76;101031.77;1637288;86;21176;-86
2023/02/06 08:06:38;;;;;;;34.18;17.80;;;;;;;-0.61;70.58;101039.53;1643228;85;21254;-85
2023/02/06 08:09:44;;;;;;;48.35;20.77;;;;;;;-0.46;70.44;101044.06;1642908;86;21265;-84
2023/02/06 08:12:50;;;;;;;43.10;22.32;;;;;;;-0.35;69.58;101033.55;1625095;87;21222;-85
2023/02/06 08:15:58;;;;;;;38.53;19.52;;;;;;;-0.34;69.58;101036.61;1640341;85;21278;-85
2023/02/06 08:19:05;;;;;;;42.78;20.35;;;;;;;-0.11;68.72;101035.75;1633037;87;21249;-84
2023/02/06 08:22:14;;;;;;;39.23;18.15;;;;;;;-0.10;67.59;101038.34;1627237;87;21580;-85
2023/02/06 08:25:19;;;;;;;35.38;18.25;;;;;;;-0.05;66.83;101048.83;1622487;87;21344;-83
2023/02/06 08:28:27;;;;;;;40.98;19.52;;;;;;;-0.42;68.09;101043.41;1632785;87;21199;-84
2023/02/06 08:31:39;;;;;;;33.20;18.40;;;;;;;0.04;66.67;101052.80;1653641;85;21501;-85
2023/02/06 08:34:46;;;;;;;34.80;18.37;;;;;;;-0.08;66.37;101049.89;1631266;87;21213;-86
2023/02/06 08:37:46;;;;;;;40.40;18.87;;;;;;;-0.11;66.15;101052.75;1641489;86;21265;-84
2023/02/06 08:40:39;;;;;;;36.08;18.40;;;;;;;-0.32;67.12;101045.47;1637386;86;21950;-84
2023/02/06 08:43:25;;;;;;;37.20;19.98;;;;;;;-0.33;66.82;101053.16;1643776;85;21249;-83
2023/02/06 08:46:19;;;;;;;30.75;18.23;;;;;;;-0.17;67.04;101040.16;1643557;86;21217;-84
2023/02/06 08:49:13;;;;;;;33.55;18.05;;;;;;;-0.40;67.55;101039.66;1646375;86;21528;-84
2023/02/06 08:52:06;;;;;;;34.00;18.00;;;;;;;-0.01;67.28;101037.80;1643363;86;21203;-85
2023/02/06 08:54:53;;;;;;;32.50;17.02;;;;;;;-0.11;67.01;101035.75;1625788;85;21201;-84
2023/02/06 08:57:46;;;;;;;29.48;16.93;;;;;;;0.09;65.44;101050.22;1637039;87;21200;-85
2023/02/06 09:00:52;;;;;;;32.95;17.73;;;;;;;-0.46;66.07;101044.55;1637599;86;21763;-84
2023/02/06 09:04:03;;;;;;;31.55;16.97;;;;;;;-0.37;66.56;101023.85;1633406;87;21194;-85
2023/02/06 09:07:10;;;;;;;39.00;17.50;;;;;;;-0.40;66.41;101031.60;1636929;87;21760;-83
2023/02/06 09:10:18;;;;;;;31.62;17.00;;;;;;;-0.38;66.79;101026.13;1636581;87;21229;-84
2023/02/06 09:13:26;;;;;;;28.85;15.70;;;;;;;-0.26;67.12;101035.70;1645389;86;21202;-85
2023/02/06 09:16:33;;;;;;;29.05;15.93;;;;;;;0.09;66.59;101024.66;1647262;86;21201;-85
2023/02/06 09:19:40;;;;;;;28.45;15.30;;;;;;;-0.08;66.43;101039.63;1622482;87;21237;-85
2023/02/06 09:22:47;;;;;;;27.10;14.70;;;;;;;-0.38;66.91;101030.16;1634266;86;21379;-83
2023/02/06 09:25:53;;;;;;;25.48;13.75;;;;;;;-0.36;68.10;101042.57;1646376;86;21200;-83
2023/02/06 09:29:00;;;;;;;29.07;14.45;;;;;;;-0.02;65.87;101036.55;1604528;88;21625;-84
2023/02/06 09:32:00;;;;;;;27.27;15.53;;;;;;;-0.45;67.83;101038.20;1651533;86;21237;-83
2023/02/06 09:34:51;;;;;;;26.73;13.35;;;;;;;-0.15;66.93;101022.95;1650981;87;21185;-85
2023/02/06 09:37:57;;;;;;;23.83;12.88;;;;;;;-0.06;66.91;101026.94;1619496;88;21276;-85
2023/02/06 09:41:02;;;;;;;23.32;13.10;;;;;;;-0.09;66.57;101019.06;1663203;84;21909;-84
2023/02/06 09:44:36;;;;;;;22.45;12.45;;;;;;;-0.08;66.16;101019.45;1632544;88;22127;-84
2023/02/06 09:47:47;;;;;;;22.75;12.50;;;;;;;0.12;66.03;101027.19;1622600;87;22397;-85
2023/02/06 09:51:24;;;;;;;21.50;12.10;;;;;;;-0.03;65.56;101018.69;1630551;87;21214;-85
2023/02/06 09:54:36;;;;;;;21.30;12.35;;;;;;;-0.08;65.66;101029.72;1656141;86;21217;-84
2023/02/06 09:57:58;;;;;;;21.27;12.07;;;;;;;-0.11;65.80;101023.66;1630991;85;21345;-85
2023/02/06 10:01:14;;;;;;;20.12;11.63;;;;;;;-0.09;66.61;101017.24;1613201;87;21221;-83
2023/02/06 10:04:55;;;;;;;19.37;11.10;;;;;;;-0.07;64.95;101013.11;1642179;85;21748;-82
2023/02/06 10:08:24;;;;;;;17.30;10.70;;;;;;;-0.03;65.04;101002.08;1635555;85;21190;-83
2023/02/06 10:11:56;;;;;;;19.77;10.03;;;;;;;0.07;65.24;100998.83;1642424;87;21955;-83
2023/02/06 10:15:03;;;;;;;19.30;10.35;;;;;;;0.12;65.56;100996.25;1640189;85;21237;-83
2023/02/06 10:18:18;;;;;;;16.93;9.98;;;;;;;-0.16;66.77;101005.58;1645727;85;21254;-84
2023/02/06 10:21:44;;;;;;;17.10;10.05;;;;;;;-0.22;64.93;101003.27;1632490;87;21218;-84
2023/02/06 10:24:58;;;;;;;16.85;9.28;;;;;;;0.43;64.02;101001.11;1656126;85;21240;-83
2023/02/06 10:28:07;;;;;;;14.80;9.45;;;;;;;0.80;62.51;100996.09;1657792;85;21200;-84
2023/02/06 10:31:38;;;;;;;16.32;8.73;;;;;;;0.49;61.41;100999.37;1641797;85;21235;-83
2023/02/06 10:34:52;;;;;;;16.52;9.80;;;;;;;0.57;62.33;101001.61;1652778;87;21209;-84
2023/02/06 10:38:46;;;;;;;16.27;9.88;;;;;;;0.39;62.29;100996.39;1616172;86;21226;-84
2023/02/06 10:42:12;;;;;;;17.17;9.93;;;;;;;0.30;64.17;100997.44;1643817;87;21907;-85
2023/02/06 10:45:27;;;;;;;17.10;10.95;;;;;;;0.39;62.67;100999.08;1636828;86;21201;-83
2023/02/06 10:48:56;;;;;;;14.53;8.65;;;;;;;0.37;64.58;100997.43;1656773;86;21205;-83
2023/02/06 10:52:08;;;;;;;18.52;9.85;;;;;;;0.38;63.26;100997.84;1654332;86;21240;-84
2023/02/06 10:55:26;;;;;;;18.50;10.10;;;;;;;0.48;62.65;100995.83;1624205;88;21229;-83
2023/02/06 10:58:39;;;;;;;19.32;9.00;;;;;;;0.24;63.05;100996.86;1642643;86;21728;-85
2023/02/06 11:01:45;;;;;;;15.50;9.13;;;;;;;0.34;63.38;100985.53;1644602;87;21202;-86
2023/02/06 11:05:01;;;;;;;18.32;10.38;;;;;;;0.59;64.21;100992.94;1642035;86;21245;-85
2023/02/06 11:08:27;;;;;;;14.53;8.38;;;;;;;0.35;65.16;100996.19;1648602;87;21238;-86
2023/02/06 11:11:39;;;;;;;15.48;9.15;;;;;;;0.57;63.42;100999.78;1645824;86;21492;-84
2023/02/06 11:14:47;;;;;;;15.00;8.75;;;;;;;0.71;62.47;100990.84;1647150;86;21246;-83
2023/02/06 11:17:56;;;;;;;11.40;7.83;;;;;;;0.44;63.10;101017.64;1621821;88;21246;-84
2023/02/06 11:21:02;;;;;;;15.30;8.38;;;;;;;0.38;62.56;100980.34;1642559;86;21526;-85
2023/02/06 11:24:21;;;;;;;14.98;8.53;;;;;;;0.12;64.44;100977.90;1651334;85;21273;-84
2023/02/06 11:27:24;;;;;;;15.03;8.75;;;;;;;0.14;65.25;100986.73;1668636;85;21669;-83
2023/02/06 11:30:46;;;;;;;11.70;7.08;;;;;;;0.86;63.20;100996.59;1675904;85;21245;-86
2023/02/06 11:33:58;;;;;;;16.73;8.88;;;;;;;0.57;63.71;100993.05;1682644;83;21237;-84
2023/02/06 11:37:20;;;;;;;14.10;9.10;;;;;;;0.31;64.31;100992.44;1656145;86;21238;-84
2023/02/06 11:40:31;;;;;;;15.63;8.73;;;;;;;0.42;64.86;100985.90;1666926;84;21242;-84
2023/02/06 11:43:52;;;;;;;14.60;9.20;;;;;;;1.18;63.03;100994.53;1682469;83;21808;-84
2023/02/06 11:46:59;;;;;;;18.82;8.95;;;;;;;0.82;63.32;100990.15;1680695;83;21209;-83
2023/02/06 11:50:37;;;;;;;20.27;9.48;;;;;;;0.64;63.54;101005.14;1687495;83;21292;-83
2023/02/06 11:53:43;;;;;;;14.13;8.75;;;;;;;0.95;62.09;101007.27;1678095;85;21211;-83
2023/02/06 11:56:51;;;;;;;16.25;9.13;;;;;;;1.40;61.40;100997.15;1680218;85;22589;-83
2023/02/06 12:00:04;;;;;;;14.23;7.75;;;;;;;1.59;62.09;101004.88;1665255;85;21225;-83
2023/02/06 12:03:11;;;;;;;11.97;8.05;;;;;;;1.59;60.35;101021.92;1687587;83;21159;-86
2023/02/06 12:06:41;;;;;;;13.90;7.92;;;;;;;1.24;59.09;101011.63;1678148;84;21171;-86
2023/02/06 12:09:40;;;;;;;17.25;8.50;;;;;;;1.51;58.91;101011.66;1657070;86;21254;-87
2023/02/06 12:12:41;;;;;;;13.62;8.25;;;;;;;1.36;58.81;101011.79;1677516;85;21248;-85
2023/02/06 12:15:39;;;;;;;14.75;8.15;;;;;;;1.31;59.77;101003.14;1689292;83;21193;-84
2023/02/06 12:18:48;;;;;;;14.63;8.33;;;;;;;1.28;61.87;101011.82;1673696;85;21793;-83
2023/02/06 12:22:00;;;;;;;13.28;8.38;;;;;;;1.25;61.97;101014.70;1662925;85;21277;-83
2023/02/06 12:25:05;;;;;;;12.03;7.90;;;;;;;1.40;61.18;101010.63;1677866;85;21289;-84
2023/02/06 12:28:15;;;;;;;12.23;7.22;;;;;;;1.36;58.75;101010.44;1679582;85;21774;-83
2023/02/06 12:31:18;;;;;;;10.82;6.80;;;;;;;1.00;60.10;101010.04;1646124;87;21269;-83
2023/02/06 12:34:43;;;;;;;8.05;5.37;;;;;;;1.39;58.39;101014.30;1634970;87;21227;-83
2023/02/06 12:37:51;;;;;;;8.80;5.90;;;;;;;1.21;57.61;101045.51;1614042;88;21248;-84
2023/02/06 12:41:15;;;;;;;13.45;6.95;;;;;;;0.68;58.86;101017.45;1639222;87;21887;-83
2023/02/06 12:44:43;;;;;;;11.90;7.17;;;;;;;0.67;59.84;101000.92;1640220;87;21281;-84
2023/02/06 12:48:03;;;;;;;12.75;7.85;;;;;;;0.74;60.61;101000.91;1630861;87;21300;-83
2023/02/06 12:51:39;;;;;;;13.45;7.85;;;;;;;0.81;61.18;101024.30;1614297;89;21283;-85
2023/02/06 12:54:50;;;;;;;12.68;7.75;;;;;;;0.86;62.67;101017.27;1619867;88;21265;-83
2023/02/06 12:57:56;;;;;;;13.30;7.17;;;;;;;0.60;63.77;101033.22;1620249;88;21784;-83
2023/02/06 13:01:43;;;;;;;14.30;9.38;;;;;;;0.86;64.14;101033.44;1673695;85;21210;-83
2023/02/06 13:04:53;;;;;;;13.68;8.55;;;;;;;0.80;65.49;101038.73;1655669;85;21203;-84
2023/02/06 13:08:03;;;;;;;13.10;8.93;;;;;;;0.89;65.45;101025.14;1620007;88;21650;-83
2023/02/06 13:11:12;;;;;;;15.93;9.48;;;;;;;1.16;64.98;101027.42;1629059;86;21228;-83
2023/02/06 13:14:26;;;;;;;15.75;10.13;;;;;;;1.36;65.09;101019.87;1633127;85;21796;-84
2023/02/06 13:17:49;;;;;;;15.23;8.58;;;;;;;1.56;64.28;101030.73;1645746;87;21278;-83
2023/02/06 13:21:35;;;;;;;16.52;9.20;;;;;;;1.51;63.89;101028.33;1636002;87;21261;-86
2023/02/06 13:24:43;;;;;;;11.70;7.72;;;;;;;1.54;63.55;101031.66;1676697;85;21213;-86
2023/02/06 13:27:50;;;;;;;11.38;7.15;;;;;;;1.51;61.34;101033.72;1671071;85;21274;-83
2023/02/06 13:31:08;;;;;;;16.27;8.13;;;;;;;1.81;60.13;101044.79;1675409;85;21205;-86
2023/02/06 13:34:18;;;;;;;40.60;15.60;;;;;;;1.76;59.91;101041.91;1656668;85;21213;-85
2023/02/06 13:37:53;;;;;;;24.12;12.13;;;;;;;1.56;60.46;101038.81;1656804;86;21296;-84
2023/02/06 13:41:23;;;;;;;201.60;45.30;;;;;;;1.66;61.02;101043.48;1663018;83;21221;-90
2023/02/06 13:44:39;;;;;;;86.40;25.27;;;;;;;2.21;59.37;101041.59;1680885;85;21189;-90
2023/02/06 13:47:57;;;;;;;25.23;11.15;;;;;;;2.18;58.53;101049.92;1662791;83;21300;-88
2023/02/06 13:51:17;;;;;;;21.80;10.63;;;;;;;2.24;56.09;101049.00;1657271;86;21293;-90
2023/02/06 13:55:14;;;;;;;17.13;10.03;;;;;;;2.52;55.09;101057.91;1657191;86;21582;-90
2023/02/06 13:58:41;;;;;;;18.98;10.38;;;;;;;2.89;54.00;101055.33;1668570;85;21205;-91
2023/02/06 14:01:47;;;;;;;13.53;8.28;;;;;;;2.81;53.79;101054.51;1668681;86;21253;-87
2023/02/06 14:04:54;;;;;;;13.78;7.92;;;;;;;1.72;56.60;101053.86;1669287;85;21194;-89
2023/02/06 14:08:16;;;;;;;13.58;9.00;;;;;;;2.22;56.57;101064.45;1664718;85;21746;-89
2023/02/06 14:15:14;;;;;;;16.85;8.50;;;;;;;1.62;58.12;101068.06;1655969;86;21202;-86
2023/02/06 14:19:03;;;;;;;12.65;7.87;;;;;;;1.33;58.78;101065.92;1656376;86;21199;-89
2023/02/06 14:22:28;;;;;;;10.55;7.42;;;;;;;1.36;58.38;101061.66;1657416;86;21230;-88
2023/02/06 14:25:47;;;;;;;13.93;8.48;;;;;;;0.89;60.40;101076.32;1662113;86;21561;-88
2023/02/06 14:29:09;;;;;;;19.30;8.60;;;;;;;0.64;61.58;101068.42;1662615;86;21194;-88
2023/02/06 14:33:04;;;;;;;15.00;9.30;;;;;;;0.45;62.62;101070.51;1662784;86;21226;-90
2023/02/06 14:36:35;;;;;;;23.77;11.85;;;;;;;0.50;63.06;101069.75;1662241;86;21230;-89